createdAt,value
2023-04-10T00:01:54.537Z,17.42
2023-04-10T00:05:00.841Z,14.40
2023-04-10T00:08:05.584Z,13.88
2023-04-10T00:11:10.341Z,12.77
2023-04-10T00:14:14.741Z,12.55
2023-04-10T00:17:19.419Z,11.57
2023-04-10T00:20:26.358Z,11.98
2023-04-10T00:23:32.701Z,11.00
2023-04-10T00:26:37.408Z,13.82
2023-04-10T00:29:41.998Z,11.90
2023-04-10T00:32:46.339Z,12.18
2023-04-10T00:35:51.192Z,12.25
2023-04-10T00:38:56.386Z,12.82
2023-04-10T00:42:02.310Z,12.63
2023-04-10T00:45:07.589Z,10.80
2023-04-10T00:48:12.707Z,12.85
2023-04-10T00:51:17.503Z,11.98
2023-04-10T00:54:22.933Z,10.95
2023-04-10T00:57:27.505Z,10.75
2023-04-10T01:00:32.361Z,12.23
2023-04-10T01:03:39.494Z,11.07
2023-04-10T01:06:53.477Z,10.40
2023-04-10T01:10:54.561Z,11.68
2023-04-10T01:14:59.198Z,10.32
2023-04-10T01:18:52.761Z,9.32
2023-04-10T01:21:58.577Z,9.13
2023-04-10T01:25:44.917Z,9.93
2023-04-10T01:29:07.727Z,9.43
2023-04-10T01:32:18.220Z,10.43
2023-04-10T01:35:24.377Z,10.63
2023-04-10T01:38:30.476Z,9.30
2023-04-10T01:41:36.165Z,8.80
2023-04-10T01:44:44.111Z,9.93
2023-04-10T01:47:49.207Z,8.65
2023-04-10T01:50:55.643Z,8.75
2023-04-10T01:54:02.257Z,8.18
2023-04-10T01:57:07.355Z,10.40
2023-04-10T02:00:19.464Z,9.45
2023-04-10T02:03:24.164Z,8.88
2023-04-10T02:06:37.813Z,9.95
2023-04-10T02:09:54.564Z,9.00
2023-04-10T02:13:06.920Z,9.77
2023-04-10T02:16:17.394Z,9.43
2023-04-10T02:19:24.879Z,9.07
2023-04-10T02:22:30.631Z,9.60
2023-04-10T02:25:36.358Z,9.27
2023-04-10T02:28:41.139Z,10.10
2023-04-10T02:31:46.744Z,10.43
2023-04-10T02:34:51.912Z,11.07
2023-04-10T02:37:56.507Z,9.43
2023-04-10T02:41:01.324Z,9.23
2023-04-10T02:44:06.978Z,8.80
2023-04-10T02:47:11.779Z,9.65
2023-04-10T02:50:21.368Z,9.50
2023-04-10T02:53:26.195Z,8.07
2023-04-10T02:56:35.184Z,9.65
2023-04-10T02:59:39.926Z,8.82
2023-04-10T03:02:44.384Z,10.20
2023-04-10T03:05:54.361Z,10.52
2023-04-10T03:09:06.507Z,10.50
2023-04-10T03:12:11.759Z,10.10
2023-04-10T03:15:16.400Z,10.13
2023-04-10T03:18:21.156Z,10.70
2023-04-10T03:21:30.028Z,10.18
2023-04-10T03:24:34.501Z,11.15
2023-04-10T03:27:39.594Z,10.98
2023-04-10T03:30:45.494Z,10.43
2023-04-10T03:33:50.396Z,10.35
2023-04-10T03:36:55.300Z,12.23
2023-04-10T03:40:00.421Z,10.90
2023-04-10T03:43:04.965Z,10.23
2023-04-10T03:46:11.320Z,10.57
2023-04-10T03:49:20.304Z,10.60
2023-04-10T03:52:26.267Z,10.93
2023-04-10T03:55:32.112Z,9.25
2023-04-10T03:58:36.766Z,9.80
2023-04-10T04:01:42.462Z,10.32
2023-04-10T04:04:52.669Z,9.63
2023-04-10T04:08:16.740Z,9.85
2023-04-10T04:11:42.748Z,10.00
2023-04-10T04:15:09.853Z,8.73
2023-04-10T04:18:34.622Z,9.10
2023-04-10T04:22:19.929Z,10.07
2023-04-10T04:25:35.895Z,9.35
2023-04-10T04:28:48.425Z,10.07
2023-04-10T04:32:11.924Z,9.82
2023-04-10T04:35:34.529Z,9.32
2023-04-10T04:38:54.213Z,9.68
2023-04-10T04:42:09.023Z,10.40
2023-04-10T04:45:32.052Z,10.52
2023-04-10T04:48:47.451Z,8.77
2023-04-10T04:52:09.320Z,10.35
2023-04-10T04:55:20.255Z,8.45
2023-04-10T04:58:34.994Z,8.82
2023-04-10T05:01:49.464Z,10.43
2023-04-10T05:05:21.949Z,9.07
2023-04-10T05:08:41.746Z,9.32
2023-04-10T05:12:08.463Z,8.77
2023-04-10T05:15:26.430Z,10.30
2023-04-10T05:18:51.678Z,10.27
2023-04-10T05:22:07.520Z,9.15
2023-04-10T05:25:35.066Z,8.32
2023-04-10T05:29:02.574Z,9.95
2023-04-10T05:32:25.653Z,9.70
2023-04-10T05:35:56.647Z,9.07
2023-04-10T05:39:13.538Z,9.98
2023-04-10T05:42:43.968Z,12.38
2023-04-10T05:45:58.891Z,12.15
2023-04-10T05:49:26.456Z,11.90
2023-04-10T05:52:58.205Z,9.52
2023-04-10T05:56:21.135Z,9.60
2023-04-10T05:59:48.391Z,13.18
2023-04-10T06:03:11.728Z,15.70
2023-04-10T06:06:27.194Z,13.07
2023-04-10T06:09:32.163Z,9.63
2023-04-10T06:12:38.340Z,12.82
2023-04-10T06:15:44.731Z,11.57
2023-04-10T06:18:52.651Z,12.27
2023-04-10T06:21:57.449Z,15.27
2023-04-10T06:25:02.197Z,13.65
2023-04-10T06:28:06.818Z,12.82
2023-04-10T06:31:12.946Z,11.63
2023-04-10T06:34:17.886Z,13.88
2023-04-10T06:40:39.391Z,15.43
2023-04-10T06:43:45.947Z,13.68
2023-04-10T06:46:50.776Z,13.25
2023-04-10T06:49:55.780Z,13.65
2023-04-10T06:53:00.416Z,13.60
2023-04-10T06:56:06.339Z,14.73
2023-04-10T06:59:10.752Z,13.40
2023-04-10T07:02:15.458Z,14.25
2023-04-10T07:05:20.459Z,13.02
2023-04-10T07:08:25.746Z,12.80
2023-04-10T07:11:30.366Z,15.75
2023-04-10T07:14:35.712Z,12.82
2023-04-10T07:17:40.111Z,15.88
2023-04-10T07:20:44.712Z,11.63
2023-04-10T07:23:49.301Z,13.23
2023-04-10T07:26:54.254Z,15.27
2023-04-10T07:29:58.976Z,14.57
2023-04-10T07:33:03.661Z,14.35
2023-04-10T07:36:08.821Z,15.93
2023-04-10T07:39:13.723Z,12.82
2023-04-10T07:42:18.369Z,11.32
2023-04-10T07:45:22.961Z,13.00
2023-04-10T07:48:27.646Z,12.45
2023-04-10T07:51:32.007Z,10.95
2023-04-10T07:54:36.460Z,9.38
2023-04-10T07:57:42.209Z,11.20
2023-04-10T08:00:46.794Z,12.13
2023-04-10T08:03:52.147Z,12.68
2023-04-10T08:06:56.468Z,10.65
2023-04-10T08:10:00.902Z,10.60
2023-04-10T08:13:06.431Z,10.85
2023-04-10T08:16:11.036Z,10.35
2023-04-10T08:19:15.741Z,8.68
2023-04-10T08:22:20.280Z,8.95
2023-04-10T08:25:24.885Z,8.57
2023-04-10T08:28:29.085Z,9.23
2023-04-10T08:31:33.595Z,8.45
2023-04-10T08:34:39.392Z,9.85
2023-04-10T08:37:49.663Z,8.25
2023-04-10T08:44:02.991Z,7.30
2023-04-10T08:47:09.586Z,6.75
2023-04-10T08:50:17.601Z,6.05
2023-04-10T08:53:24.700Z,6.03
2023-04-10T08:56:32.713Z,6.97
2023-04-10T08:59:37.002Z,8.10
2023-04-10T09:06:06.467Z,7.38
2023-04-10T09:09:11.218Z,6.88
2023-04-10T09:12:17.148Z,6.50
2023-04-10T09:15:22.094Z,7.75
2023-04-10T09:18:50.781Z,7.22
2023-04-10T09:21:56.334Z,7.20
2023-04-10T09:25:02.913Z,7.28
2023-04-10T09:28:09.806Z,6.47
2023-04-10T09:31:35.923Z,7.28
2023-04-10T09:34:58.519Z,5.90
2023-04-10T09:38:13.141Z,8.18
2023-04-10T09:41:17.741Z,6.68
2023-04-10T09:44:37.539Z,8.93
2023-04-10T09:47:42.156Z,8.20
2023-04-10T09:50:47.274Z,8.02
2023-04-10T09:53:51.777Z,8.38
2023-04-10T09:56:57.371Z,7.55
2023-04-10T10:00:09.906Z,6.75
2023-04-10T10:03:21.279Z,7.47
2023-04-10T10:06:27.001Z,8.23
2023-04-10T10:09:31.661Z,8.65
2023-04-10T10:12:46.149Z,6.78
2023-04-10T10:16:30.352Z,7.22
2023-04-10T10:22:54.292Z,8.18
2023-04-10T10:26:02.258Z,7.45
2023-04-10T10:29:11.243Z,7.63
2023-04-10T10:32:17.949Z,6.28
2023-04-10T10:35:26.347Z,7.45
2023-04-10T10:38:32.537Z,8.52
2023-04-10T10:42:06.314Z,13.15
2023-04-10T10:45:16.591Z,8.30
2023-04-10T10:48:21.222Z,7.72
2023-04-10T10:51:50.266Z,7.82
2023-04-10T10:54:59.470Z,6.70
2023-04-10T10:58:07.490Z,6.53
2023-04-10T11:01:12.422Z,6.80
2023-04-10T11:04:43.927Z,5.50
2023-04-10T11:08:01.616Z,5.93
2023-04-10T11:11:12.931Z,5.47
2023-04-10T11:14:18.472Z,6.15
2023-04-10T11:17:53.996Z,6.15
2023-04-10T11:21:23.818Z,5.88
2023-04-10T11:24:51.256Z,5.57
2023-04-10T11:27:55.575Z,6.93
2023-04-10T11:31:22.469Z,5.40
2023-04-10T11:34:27.791Z,5.20
2023-04-10T11:37:32.713Z,7.35
2023-04-10T11:40:57.536Z,6.13
2023-04-10T11:44:07.234Z,5.88
2023-04-10T11:47:13.377Z,5.55
2023-04-10T11:50:18.845Z,5.03
2023-04-10T11:53:23.905Z,6.07
2023-04-10T11:56:30.012Z,5.63
2023-04-10T11:59:35.308Z,4.75
2023-04-10T12:02:53.210Z,4.57
2023-04-10T12:05:58.443Z,4.47
2023-04-10T12:09:15.684Z,6.15
2023-04-10T12:12:20.630Z,5.03
2023-04-10T12:15:28.230Z,4.90
2023-04-10T12:18:33.779Z,5.80
2023-04-10T12:21:41.183Z,5.88
2023-04-10T12:24:51.371Z,5.45
2023-04-10T12:27:56.463Z,5.32
2023-04-10T12:31:00.823Z,5.15
2023-04-10T12:34:07.033Z,4.45
2023-04-10T12:37:12.618Z,5.30
2023-04-10T12:40:18.442Z,4.25
2023-04-10T12:44:07.917Z,4.32
2023-04-10T12:47:12.484Z,3.97
2023-04-10T12:50:20.964Z,4.47
2023-04-10T12:53:27.252Z,4.22
2023-04-10T12:56:42.357Z,4.45
2023-04-10T12:59:47.348Z,3.83
2023-04-10T13:02:52.476Z,4.53
2023-04-10T13:05:57.659Z,4.03
2023-04-10T13:09:02.206Z,4.18
2023-04-10T13:12:06.862Z,4.68
2023-04-10T13:15:11.441Z,4.07
2023-04-10T13:18:16.268Z,5.43
2023-04-10T13:21:26.010Z,4.35
2023-04-10T13:24:31.676Z,5.28
2023-04-10T13:27:36.410Z,3.80
2023-04-10T13:30:42.547Z,4.25
2023-04-10T13:33:48.499Z,5.38
2023-04-10T13:36:52.967Z,3.72
2023-04-10T13:39:57.691Z,5.65
2023-04-10T13:43:02.360Z,4.43
2023-04-10T13:46:07.441Z,4.32
2023-04-10T13:49:12.130Z,5.75
2023-04-10T13:52:16.778Z,4.55
2023-04-10T13:55:21.358Z,4.35
2023-04-10T13:58:28.539Z,4.78
2023-04-10T14:01:33.191Z,4.65
2023-04-10T14:04:37.843Z,4.90
2023-04-10T14:07:42.300Z,4.28
2023-04-10T14:10:50.794Z,4.80
2023-04-10T14:13:55.484Z,4.40
2023-04-10T14:17:00.001Z,4.30
2023-04-10T14:20:04.684Z,4.57
2023-04-10T14:23:09.557Z,3.53
2023-04-10T14:26:14.173Z,3.88
2023-04-10T14:29:22.584Z,4.55
2023-04-10T14:32:30.909Z,3.97
2023-04-10T14:35:35.555Z,4.85
2023-04-10T14:38:40.316Z,4.15
2023-04-10T14:41:44.759Z,4.30
2023-04-10T14:44:49.275Z,4.47
2023-04-10T14:47:54.277Z,3.75
2023-04-10T14:50:59.111Z,3.83
2023-04-10T14:54:04.473Z,4.35
2023-04-10T14:57:09.866Z,4.40
2023-04-10T15:00:15.480Z,4.20
2023-04-10T15:03:20.310Z,4.43
2023-04-10T15:06:28.183Z,4.00
2023-04-10T15:09:32.742Z,4.10
2023-04-10T15:12:37.209Z,4.43
2023-04-10T15:15:41.813Z,3.90
2023-04-10T15:18:49.726Z,4.68
2023-04-10T15:21:55.712Z,3.83
2023-04-10T15:25:00.286Z,3.63
2023-04-10T15:28:05.096Z,4.13
2023-04-10T15:31:11.004Z,3.60
2023-04-10T15:34:15.735Z,3.78
2023-04-10T15:37:21.245Z,3.88
2023-04-10T15:40:25.887Z,5.70
2023-04-10T15:43:30.932Z,4.78
2023-04-10T15:46:37.518Z,3.70
2023-04-10T15:49:41.962Z,3.55
2023-04-10T15:52:46.461Z,2.63
2023-04-10T15:55:51.133Z,3.47
2023-04-10T15:58:55.619Z,4.15
2023-04-10T16:02:01.222Z,4.13
2023-04-10T16:05:09.479Z,4.03
2023-04-10T16:08:14.750Z,5.82
2023-04-10T16:11:20.424Z,4.05
2023-04-10T16:14:25.168Z,5.18
2023-04-10T16:17:29.788Z,4.65
2023-04-10T16:20:35.016Z,3.90
2023-04-10T16:23:39.924Z,4.57
2023-04-10T16:26:44.847Z,4.18
2023-04-10T16:29:49.692Z,3.85
2023-04-10T16:32:54.434Z,3.72
2023-04-10T16:35:59.173Z,4.07
2023-04-10T16:39:03.762Z,3.08
2023-04-10T16:42:08.426Z,3.70
2023-04-10T16:45:13.528Z,3.42
2023-04-10T16:48:18.374Z,4.10
2023-04-10T16:51:24.330Z,3.50
2023-04-10T16:54:28.730Z,3.15
2023-04-10T16:57:33.529Z,5.10
2023-04-10T17:00:38.291Z,3.58
2023-04-10T17:03:42.916Z,4.50
2023-04-10T17:06:47.776Z,3.80
2023-04-10T17:09:52.545Z,3.08
2023-04-10T17:12:57.328Z,4.05
2023-04-10T17:16:02.948Z,3.08
2023-04-10T17:19:07.449Z,3.63
2023-04-10T17:22:18.121Z,3.70
2023-04-10T17:25:23.202Z,4.45
2023-04-10T17:28:27.745Z,4.00
2023-04-10T17:31:32.236Z,5.35
2023-04-10T17:34:36.690Z,4.68
2023-04-10T17:37:41.125Z,5.93
2023-04-10T17:40:45.931Z,5.15
2023-04-10T17:43:50.806Z,5.40
2023-04-10T17:46:55.232Z,5.03
2023-04-10T17:49:59.936Z,5.28
2023-04-10T17:53:04.716Z,5.60
2023-04-10T17:56:21.048Z,4.35
2023-04-10T17:59:25.912Z,5.63
2023-04-10T18:02:30.675Z,5.15
2023-04-10T18:05:36.719Z,4.20
2023-04-10T18:08:41.424Z,4.25
2023-04-10T18:11:47.867Z,3.95
2023-04-10T18:14:52.301Z,4.43
2023-04-10T18:17:56.861Z,3.80
2023-04-10T18:21:07.141Z,3.42
2023-04-10T18:24:12.190Z,4.30
2023-04-10T18:27:16.808Z,3.83
2023-04-10T18:30:21.781Z,3.63
2023-04-10T18:33:26.747Z,3.20
2023-04-10T18:36:31.495Z,3.88
2023-04-10T18:39:38.144Z,3.38
2023-04-10T18:42:42.560Z,3.05
2023-04-10T18:45:47.144Z,3.45
2023-04-10T18:48:54.549Z,3.58
2023-04-10T18:51:58.871Z,3.55
2023-04-10T18:55:04.062Z,3.15
2023-04-10T18:58:08.369Z,3.05
2023-04-10T19:01:13.186Z,3.22
2023-04-10T19:04:17.875Z,2.78
2023-04-10T19:07:22.686Z,4.25
2023-04-10T19:10:27.838Z,3.28
2023-04-10T19:13:33.555Z,3.40
2023-04-10T19:16:38.052Z,3.35
2023-04-10T19:19:42.983Z,3.40
2023-04-10T19:22:47.655Z,3.90
2023-04-10T19:25:54.533Z,4.15
2023-04-10T19:29:00.261Z,3.80
2023-04-10T19:32:04.851Z,3.63
2023-04-10T19:35:09.628Z,4.20
2023-04-10T19:38:14.290Z,3.60
2023-04-10T19:41:19.073Z,3.78
2023-04-10T19:44:24.170Z,4.03
2023-04-10T19:47:31.816Z,3.50
2023-04-10T19:50:37.139Z,3.13
2023-04-10T19:53:43.050Z,3.92
2023-04-10T19:56:47.562Z,2.72
2023-04-10T19:59:52.187Z,3.05
2023-04-10T20:03:01.933Z,5.18
2023-04-10T20:06:10.382Z,4.25
2023-04-10T20:09:18.582Z,3.88
2023-04-10T20:12:22.617Z,4.13
2023-04-10T20:15:27.276Z,4.57
2023-04-10T20:18:32.451Z,3.17
2023-04-10T20:21:36.880Z,3.10
2023-04-10T20:24:41.293Z,2.75
2023-04-10T20:27:45.985Z,2.78
2023-04-10T20:30:50.298Z,3.13
2023-04-10T20:33:55.085Z,2.35
2023-04-10T20:37:00.841Z,2.80
2023-04-10T20:40:06.495Z,2.95
2023-04-10T20:43:12.241Z,2.20
2023-04-10T20:46:17.143Z,3.10
2023-04-10T20:49:21.365Z,4.00
2023-04-10T20:52:26.066Z,3.03
2023-04-10T20:55:30.812Z,2.97
2023-04-10T20:58:35.679Z,2.30
2023-04-10T21:01:40.573Z,1.80
2023-04-10T21:04:45.114Z,3.58
2023-04-10T21:07:49.822Z,2.20
2023-04-10T21:10:56.230Z,2.83
2023-04-10T21:14:00.763Z,2.60
2023-04-10T21:17:05.574Z,2.50
2023-04-10T21:20:11.070Z,2.97
2023-04-10T21:23:15.665Z,4.22
2023-04-10T21:26:20.307Z,3.53
2023-04-10T21:29:25.296Z,4.43
2023-04-10T21:32:29.795Z,5.65
2023-04-10T21:35:34.412Z,4.10
2023-04-10T21:38:38.940Z,3.40
2023-04-10T21:41:44.309Z,3.53
2023-04-10T21:44:48.860Z,4.70
2023-04-10T21:47:53.330Z,5.15
2023-04-10T21:50:57.686Z,6.25
2023-04-10T21:54:02.362Z,4.25
2023-04-10T21:57:07.791Z,3.63
2023-04-10T22:00:13.817Z,4.93
2023-04-10T22:03:20.281Z,5.45
2023-04-10T22:06:24.951Z,5.22
2023-04-10T22:09:29.903Z,7.47
2023-04-10T22:12:34.691Z,6.53
2023-04-10T22:15:39.280Z,5.93
2023-04-10T22:18:44.064Z,5.13
2023-04-10T22:21:48.967Z,5.05
2023-04-10T22:24:53.555Z,6.25
2023-04-10T22:27:59.000Z,6.18
2023-04-10T22:31:03.814Z,7.22
2023-04-10T22:34:12.088Z,7.53
2023-04-10T22:37:16.968Z,5.32
2023-04-10T22:40:21.360Z,8.18
2023-04-10T22:43:25.752Z,6.55
2023-04-10T22:46:30.564Z,9.65
2023-04-10T22:49:35.072Z,7.82
2023-04-10T22:52:40.020Z,9.15
2023-04-10T22:55:44.884Z,6.93
2023-04-10T22:58:49.223Z,7.70
2023-04-10T23:01:53.658Z,6.63
2023-04-10T23:04:58.255Z,8.48
2023-04-10T23:08:03.067Z,9.60
2023-04-10T23:11:08.160Z,7.32
2023-04-10T23:14:13.765Z,7.93
2023-04-10T23:17:20.257Z,8.23
2023-04-10T23:20:25.431Z,9.40
2023-04-10T23:23:30.038Z,5.97
2023-04-10T23:26:34.878Z,8.65
2023-04-10T23:29:39.507Z,6.05
2023-04-10T23:32:44.538Z,5.25
2023-04-10T23:35:49.339Z,4.05
2023-04-10T23:38:54.369Z,6.15
2023-04-10T23:41:58.752Z,6.28
2023-04-10T23:45:03.700Z,6.78
2023-04-10T23:48:09.940Z,3.38
2023-04-10T23:51:14.591Z,3.03
2023-04-10T23:54:19.462Z,4.35
2023-04-10T23:57:24.302Z,4.88
